Time;durP1;ratioP1;P1;durP2;ratioP2;P2;SDS_P1;SDS_P2;PMS_P1;PMS_P2;Temp;Humidity;BMP_temperature;BMP_pressure;BME280_temperature;BME280_humidity;BME280_pressure;Samples;Min_cycle;Max_cycle;Signal;HPM_P1;HPM_P2
2022/04/14 00:02:07;;;;;;;11.65;3.25;;;;;;;6.09;82.56;99706.58;1705692;81;21049;-69
2022/04/14 00:04:36;;;;;;;12.47;3.62;;;;;;;6.04;82.73;99709.34;1739204;80;21002;-69
2022/04/14 00:07:06;;;;;;;9.35;3.92;;;;;;;6.08;82.69;99709.05;1701350;83;21526;-67
2022/04/14 00:09:37;;;;;;;9.85;3.55;;;;;;;6.09;82.67;99704.66;1712128;83;21017;-71
2022/04/14 00:12:05;;;;;;;8.78;3.67;;;;;;;6.10;82.66;99697.28;1700675;82;20982;-69
2022/04/14 00:14:32;;;;;;;11.48;4.00;;;;;;;6.13;82.66;99697.25;1744966;80;21016;-70
2022/04/14 00:17:00;;;;;;;7.00;2.98;;;;;;;6.15;82.40;99698.61;1748003;81;21101;-69
2022/04/14 00:22:43;;;;;;;6.05;2.27;;;;;;;6.18;81.75;99694.47;1742031;79;21589;-69
2022/04/14 00:25:11;;;;;;;6.75;2.70;;;;;;;6.18;81.63;99708.16;1757650;80;20996;-71
2022/04/14 00:27:40;;;;;;;8.28;2.60;;;;;;;6.18;81.42;99705.42;1769755;80;21008;-71
2022/04/14 00:30:08;;;;;;;7.20;2.50;;;;;;;6.16;81.13;99702.97;1745583;79;21037;-71
2022/04/14 00:32:36;;;;;;;4.87;2.27;;;;;;;6.15;81.16;99705.45;1773485;79;21060;-70
2022/04/14 00:35:05;;;;;;;5.40;2.02;;;;;;;6.12;81.33;99703.83;1767161;79;21188;-68
2022/04/14 00:37:33;;;;;;;7.12;2.25;;;;;;;6.16;80.93;99703.55;1690992;83;20998;-68
2022/04/14 00:40:00;;;;;;;3.87;1.70;;;;;;;6.16;80.71;99701.59;1749508;79;21093;-68
2022/04/14 00:42:27;;;;;;;3.25;1.85;;;;;;;5.92;81.10;99709.70;1756694;81;20978;-69
2022/04/14 00:44:54;;;;;;;6.83;1.40;;;;;;;5.85;81.32;99703.19;1759225;81;21001;-69
2022/04/14 00:47:25;;;;;;;6.65;1.62;;;;;;;5.81;81.02;99716.60;1751685;81;21037;-71
2022/04/14 00:49:54;;;;;;;1.57;1.25;;;;;;;5.99;80.47;99708.81;1750364;81;21581;-70
2022/04/14 00:52:23;;;;;;;6.97;2.05;;;;;;;5.82;80.89;99711.93;1747996;81;21063;-69
2022/04/14 00:54:50;;;;;;;8.78;1.92;;;;;;;5.85;81.07;99710.02;1687809;82;21099;-68
2022/04/14 00:57:17;;;;;;;6.70;2.05;;;;;;;6.03;80.19;99703.59;1713117;82;21066;-71
2022/04/14 00:59:44;;;;;;;5.95;1.42;;;;;;;5.93;80.34;99705.85;1765441;80;21149;-71
2022/04/14 01:02:15;;;;;;;4.58;1.87;;;;;;;5.87;80.47;99707.80;1763772;80;21040;-70
2022/04/14 01:04:43;;;;;;;4.58;1.90;;;;;;;6.03;79.77;99711.80;1752463;80;21029;-69
2022/04/14 01:07:16;;;;;;;4.17;1.32;;;;;;;6.08;79.25;99708.52;1751900;80;20990;-69
2022/04/14 01:09:46;;;;;;;6.42;1.70;;;;;;;6.12;78.92;99715.61;1753795;81;21009;-70
2022/04/14 01:12:15;;;;;;;5.67;1.57;;;;;;;6.12;78.99;99713.41;1759230;81;21699;-68
2022/04/14 01:14:45;;;;;;;3.17;1.50;;;;;;;5.90;79.34;99716.00;1732242;80;20998;-69
2022/04/14 01:17:13;;;;;;;3.35;1.45;;;;;;;5.85;79.49;99725.86;1762276;80;21081;-70
2022/04/14 01:19:47;;;;;;;3.33;1.40;;;;;;;5.84;79.27;99714.66;1713231;82;21472;-71
2022/04/14 01:22:35;;;;;;;2.27;1.05;;;;;;;5.84;79.11;99717.94;1714184;81;21006;-72
2022/04/14 01:25:03;;;;;;;2.08;1.00;;;;;;;5.84;78.94;99720.13;1753301;80;21088;-71
2022/04/14 01:27:31;;;;;;;2.70;1.45;;;;;;;5.85;79.00;99716.28;1756249;80;21443;-69
2022/04/14 01:29:58;;;;;;;2.40;1.12;;;;;;;5.92;78.73;99708.33;1757136;80;21068;-71
2022/04/14 01:32:25;;;;;;;2.87;1.10;;;;;;;5.91;78.68;99710.24;1752816;81;21104;-69
2022/04/14 01:34:55;;;;;;;3.22;1.20;;;;;;;5.93;78.26;99714.06;1759086;80;21083;-69
2022/04/14 01:37:22;;;;;;;4.78;1.30;;;;;;;5.92;78.02;99716.54;1731991;81;21827;-70
2022/04/14 01:39:48;;;;;;;4.67;1.15;;;;;;;5.92;77.96;99709.70;1758910;80;21476;-69
2022/04/14 01:42:15;;;;;;;1.40;0.95;;;;;;;5.94;77.97;99710.21;1742957;81;21039;-69
2022/04/14 01:44:43;;;;;;;3.90;1.20;;;;;;;5.92;77.72;99700.92;1755400;80;21067;-68
2022/04/14 01:47:10;;;;;;;3.05;1.27;;;;;;;5.93;77.54;99704.48;1757194;80;21024;-71
2022/04/14 01:49:37;;;;;;;1.87;1.22;;;;;;;5.92;77.58;99700.92;1758262;80;21630;-71
2022/04/14 01:52:05;;;;;;;2.75;1.02;;;;;;;5.93;77.50;99707.22;1766575;80;21037;-69
2022/04/14 01:54:34;;;;;;;4.78;1.20;;;;;;;5.90;77.31;99710.53;1767467;79;21078;-70
2022/04/14 01:57:01;;;;;;;4.33;1.37;;;;;;;5.90;77.37;99707.80;1767394;80;21199;-69
2022/04/14 01:59:28;;;;;;;2.33;1.25;;;;;;;5.90;77.23;99705.06;1763670;80;21034;-72
2022/04/14 02:01:55;;;;;;;1.52;1.02;;;;;;;5.92;77.28;99715.17;1760359;80;21223;-70
2022/04/14 02:04:23;;;;;;;2.67;1.47;;;;;;;5.92;76.84;99731.58;1754723;80;21029;-71
2022/04/14 02:06:54;;;;;;;1.85;1.00;;;;;;;5.88;76.70;99728.59;1759949;80;21626;-71
2022/04/14 02:09:22;;;;;;;2.62;1.22;;;;;;;5.85;76.65;99728.59;1761255;80;21016;-69
2022/04/14 02:11:49;;;;;;;3.65;1.42;;;;;;;5.86;76.69;99729.42;1763966;80;21531;-70
2022/04/14 02:14:16;;;;;;;6.78;1.65;;;;;;;5.87;76.53;99734.34;1762017;80;21215;-70
2022/04/14 02:16:47;;;;;;;4.05;1.72;;;;;;;5.88;76.33;99742.81;1755400;80;20986;-70
2022/04/14 02:19:15;;;;;;;7.92;1.98;;;;;;;5.85;76.23;99736.80;1758757;80;21021;-71
2022/04/14 02:21:42;;;;;;;8.65;2.90;;;;;;;5.84;76.14;99738.45;1762693;80;21011;-69
2022/04/14 02:24:08;;;;;;;9.35;3.65;;;;;;;5.79;75.88;99744.78;1761483;80;21509;-69
2022/04/14 02:26:35;;;;;;;12.68;4.40;;;;;;;5.75;76.07;99736.06;1764059;80;21797;-72
2022/04/14 02:29:02;;;;;;;18.07;4.95;;;;;;;5.73;75.83;99743.18;1761921;80;21050;-69
2022/04/14 02:31:29;;;;;;;18.87;6.03;;;;;;;5.69;75.90;99746.20;1767351;80;21016;-70
2022/04/14 02:33:55;;;;;;;28.35;8.60;;;;;;;5.69;75.92;99743.47;1720707;82;21038;-72
2022/04/14 02:36:23;;;;;;;23.55;9.28;;;;;;;5.70;75.75;99745.08;1760442;80;21425;-69
2022/04/14 02:38:53;;;;;;;27.62;9.48;;;;;;;5.68;75.70;99743.20;1762639;79;21378;-70
2022/04/14 02:41:21;;;;;;;23.02;9.20;;;;;;;5.68;75.70;99739.91;1780603;79;21142;-71
2022/04/14 02:43:49;;;;;;;28.40;9.45;;;;;;;5.69;75.73;99742.92;1781469;80;21002;-71
2022/04/14 02:46:20;;;;;;;25.45;8.55;;;;;;;5.70;75.66;99746.45;1775536;79;21091;-72
2022/04/14 02:48:48;;;;;;;25.37;10.03;;;;;;;5.69;75.27;99749.76;1766243;79;21072;-70
2022/04/14 02:51:16;;;;;;;33.98;10.10;;;;;;;5.69;75.26;99748.93;1774252;79;21104;-70
2022/04/14 02:53:42;;;;;;;27.93;8.83;;;;;;;5.67;75.12;99747.84;1774235;80;21048;-70
2022/04/14 02:56:11;;;;;;;21.35;7.83;;;;;;;5.65;75.00;99755.50;1780586;80;21540;-73
2022/04/14 02:58:46;;;;;;;24.23;8.38;;;;;;;5.66;75.12;99748.13;1767381;80;21020;-71
2022/04/14 03:01:15;;;;;;;26.10;9.53;;;;;;;5.65;74.97;99755.50;1778545;79;21077;-69
2022/04/14 03:03:43;;;;;;;23.40;7.62;;;;;;;5.63;74.89;99760.44;1778177;79;21041;-71
2022/04/14 03:06:09;;;;;;;25.43;8.20;;;;;;;5.64;74.85;99759.89;1761903;80;21053;-73
2022/04/14 03:08:37;;;;;;;26.35;8.35;;;;;;;5.63;74.79;99761.00;1767859;79;21076;-70
2022/04/14 03:11:05;;;;;;;30.40;9.28;;;;;;;5.62;74.71;99757.44;1774421;79;21068;-72
2022/04/14 03:13:32;;;;;;;34.13;10.38;;;;;;;5.60;74.64;99754.98;1708962;82;21052;-70
2022/04/14 03:16:00;;;;;;;23.80;8.90;;;;;;;5.61;74.58;99766.75;1715059;83;21085;-69
2022/04/14 03:18:34;;;;;;;38.73;9.73;;;;;;;5.59;74.60;99769.77;1705327;82;22110;-70
2022/04/14 03:21:03;;;;;;;33.98;9.28;;;;;;;5.59;74.45;99765.67;1754228;79;21025;-69
2022/04/14 03:23:38;;;;;;;28.00;9.93;;;;;;;5.59;74.41;99775.23;1766077;79;21029;-70
2022/04/14 03:26:28;;;;;;;23.32;7.78;;;;;;;5.57;74.25;99769.23;1652003;85;21063;-71
2022/04/14 03:28:57;;;;;;;26.23;7.90;;;;;;;5.60;74.43;99772.77;1639080;85;21134;-70
2022/04/14 03:31:25;;;;;;;24.07;8.73;;;;;;;5.61;74.28;99765.39;1772247;79;21518;-71
2022/04/14 03:34:02;;;;;;;26.50;9.68;;;;;;;5.62;74.08;99764.81;1771101;79;21052;-70
2022/04/14 03:36:31;;;;;;;23.87;8.85;;;;;;;5.64;74.12;99770.83;1771256;80;21477;-70
2022/04/14 03:38:59;;;;;;;28.47;8.63;;;;;;;5.64;73.94;99768.09;1775429;79;21541;-71
2022/04/14 03:41:25;;;;;;;27.35;8.93;;;;;;;5.66;73.98;99770.83;1755106;79;21301;-70
2022/04/14 03:44:02;;;;;;;21.57;7.62;;;;;;;5.68;73.84;99776.02;1778528;80;21170;-71
2022/04/14 03:46:25;;;;;;;29.02;8.75;;;;;;;5.69;73.68;99781.74;1777852;79;21037;-72
2022/04/14 03:48:56;;;;;;;25.55;9.48;;;;;;;5.68;73.61;99776.81;1775385;79;21006;-69
2022/04/14 03:51:25;;;;;;;28.92;9.63;;;;;;;5.67;73.51;99777.09;1776854;79;21092;-71
2022/04/14 03:53:53;;;;;;;28.25;8.35;;;;;;;5.67;73.37;99773.00;1772416;79;21158;-72
2022/04/14 03:56:21;;;;;;;35.55;9.18;;;;;;;5.67;73.28;99779.30;1772556;79;20988;-73
2022/04/14 03:58:48;;;;;;;24.12;8.18;;;;;;;5.66;73.22;99779.58;1771266;79;21324;-70
2022/04/14 04:01:17;;;;;;;27.58;8.23;;;;;;;5.68;73.28;99781.48;1772119;78;21210;-71
2022/04/14 04:03:45;;;;;;;26.70;8.50;;;;;;;5.69;73.22;99785.84;1776465;79;21057;-70
2022/04/14 04:06:12;;;;;;;25.65;7.72;;;;;;;5.70;73.19;99786.92;1757102;80;21066;-70
2022/04/14 04:08:42;;;;;;;23.35;8.10;;;;;;;5.70;73.04;99791.56;1771034;79;21020;-72
2022/04/14 04:11:13;;;;;;;21.60;7.78;;;;;;;5.70;72.99;99799.23;1739082;81;21093;-70
2022/04/14 04:13:41;;;;;;;27.15;7.83;;;;;;;5.71;72.94;99801.42;1767725;79;21581;-70
2022/04/14 04:16:07;;;;;;;27.22;7.08;;;;;;;5.70;73.01;99795.13;1773893;79;21040;-70
2022/04/14 04:18:34;;;;;;;19.70;7.53;;;;;;;5.74;72.83;99798.13;1776116;79;21080;-69
2022/04/14 04:21:02;;;;;;;26.90;7.17;;;;;;;5.74;72.70;99804.96;1773078;80;21010;-70
2022/04/14 04:23:29;;;;;;;24.40;6.80;;;;;;;5.74;72.69;99798.13;1744602;80;21008;-70
2022/04/14 04:25:56;;;;;;;26.55;7.80;;;;;;;5.75;72.62;99800.32;1745122;80;21021;-70
2022/04/14 04:28:30;;;;;;;20.77;7.25;;;;;;;5.75;72.45;99797.59;1780083;79;21049;-69
2022/04/14 04:30:54;;;;;;;20.75;8.33;;;;;;;5.76;72.59;99802.77;1771209;79;21069;-69
2022/04/14 04:33:23;;;;;;;29.18;8.20;;;;;;;5.76;72.36;99798.67;1773461;79;21053;-70
2022/04/14 04:35:54;;;;;;;22.48;7.05;;;;;;;5.78;72.39;99799.75;1765683;79;20993;-71
2022/04/14 04:38:23;;;;;;;20.52;7.05;;;;;;;5.78;72.43;99804.69;1767995;79;21509;-70
2022/04/14 04:40:50;;;;;;;24.87;8.25;;;;;;;5.78;72.34;99800.58;1754545;78;22077;-70
2022/04/14 04:43:22;;;;;;;24.98;7.22;;;;;;;5.79;72.36;99811.77;1729227;81;21446;-69
2022/04/14 04:45:51;;;;;;;18.62;6.83;;;;;;;5.80;72.25;99812.03;1760733;80;20972;-71
2022/04/14 04:48:18;;;;;;;19.50;7.10;;;;;;;5.81;72.23;99819.70;1725646;81;21048;-70
2022/04/14 04:50:50;;;;;;;24.47;6.70;;;;;;;5.83;72.23;99822.41;1763114;80;21031;-70
2022/04/14 04:53:20;;;;;;;18.62;5.80;;;;;;;5.84;72.18;99817.77;1759486;80;21018;-70
2022/04/14 04:55:53;;;;;;;21.10;6.33;;;;;;;5.87;72.14;99824.60;1761077;80;21554;-70
2022/04/14 04:58:24;;;;;;;21.35;6.25;;;;;;;5.89;72.08;99815.00;1737923;81;38343;-71
2022/04/14 05:00:56;;;;;;;18.80;6.12;;;;;;;5.90;72.00;99816.63;1760237;80;21097;-71
2022/04/14 05:03:25;;;;;;;19.77;6.10;;;;;;;5.94;71.99;99814.16;1761266;80;21041;-73
2022/04/14 05:05:51;;;;;;;25.88;6.72;;;;;;;5.94;71.64;99822.36;1760652;80;21131;-72
2022/04/14 05:08:19;;;;;;;19.37;7.75;;;;;;;5.95;71.70;99821.28;1761169;80;21757;-70
2022/04/14 05:10:47;;;;;;;19.92;6.28;;;;;;;5.95;71.77;99826.18;1724908;81;21025;-70
2022/04/14 05:13:15;;;;;;;23.22;7.22;;;;;;;5.99;71.81;99831.11;1761082;80;21082;-71
2022/04/14 05:15:42;;;;;;;21.85;6.47;;;;;;;6.01;71.69;99826.16;1766989;80;21039;-74
2022/04/14 05:18:12;;;;;;;21.90;6.40;;;;;;;6.01;71.60;99834.36;1751217;80;21036;-71
2022/04/14 05:20:42;;;;;;;20.37;6.62;;;;;;;6.03;71.68;99828.89;1750806;81;21940;-71
2022/04/14 05:23:09;;;;;;;20.77;5.75;;;;;;;6.06;71.61;99842.03;1763952;80;21034;-69
2022/04/14 05:25:40;;;;;;;15.85;5.65;;;;;;;6.09;71.40;99839.27;1760808;80;21021;-70
2022/04/14 05:28:10;;;;;;;17.00;5.42;;;;;;;6.11;71.33;99844.48;1758493;80;21040;-70
2022/04/14 05:30:38;;;;;;;13.40;5.25;;;;;;;6.12;70.99;99833.80;1758872;80;21073;-70
2022/04/14 05:33:10;;;;;;;16.60;5.55;;;;;;;6.13;70.88;99842.27;1756033;80;21505;-70
2022/04/14 05:35:43;;;;;;;13.22;4.80;;;;;;;6.15;71.09;99837.33;1757248;80;21040;-70
2022/04/14 05:38:14;;;;;;;17.60;6.33;;;;;;;6.18;71.13;99846.34;1760251;80;20993;-71
2022/04/14 05:40:53;;;;;;;21.33;8.10;;;;;;;6.20;70.90;99847.70;1769590;79;21095;-71
2022/04/14 05:43:27;;;;;;;16.97;7.10;;;;;;;6.24;70.76;99845.77;1771384;79;21056;-71
2022/04/14 05:45:54;;;;;;;21.65;6.70;;;;;;;6.23;69.88;99850.98;1778259;79;21281;-69
2022/04/14 05:48:24;;;;;;;10.78;4.25;;;;;;;6.21;70.10;99855.34;1745641;79;21056;-68
2022/04/14 05:50:52;;;;;;;9.08;4.20;;;;;;;6.21;69.76;99845.23;1765857;79;20977;-71
2022/04/14 05:53:31;;;;;;;11.50;3.83;;;;;;;6.23;69.92;99847.68;1770231;79;21056;-70
2022/04/14 05:55:59;;;;;;;7.72;3.22;;;;;;;6.25;69.92;99852.33;1773573;79;20996;-70
2022/04/14 05:58:27;;;;;;;10.13;4.33;;;;;;;6.28;69.79;99853.12;1765946;79;21266;-72
2022/04/14 06:00:54;;;;;;;10.25;4.05;;;;;;;6.27;69.57;99858.34;1767692;79;20974;-69
2022/04/14 06:03:21;;;;;;;10.03;4.10;;;;;;;6.30;69.56;99862.42;1765368;80;21112;-70
2022/04/14 06:05:48;;;;;;;10.00;4.10;;;;;;;6.31;69.57;99856.66;1715770;83;21070;-71
2022/04/14 06:08:14;;;;;;;14.13;4.17;;;;;;;6.31;69.39;99863.50;1747645;80;21060;-71
2022/04/14 06:10:47;;;;;;;11.33;4.58;;;;;;;6.29;69.34;99853.41;1728830;80;21032;-70
2022/04/14 06:13:14;;;;;;;9.83;3.60;;;;;;;6.34;69.59;99862.13;1774094;79;21057;-70
2022/04/14 06:15:41;;;;;;;11.65;3.72;;;;;;;6.38;69.05;99852.81;1772023;79;21112;-70
2022/04/14 06:18:08;;;;;;;9.75;3.67;;;;;;;6.36;68.89;99857.74;1762204;79;21043;-71
2022/04/14 06:20:36;;;;;;;15.48;4.47;;;;;;;6.40;69.04;99861.53;1767998;79;21068;-71
2022/04/14 06:23:04;;;;;;;9.58;4.37;;;;;;;6.43;68.81;99860.41;1762165;79;21077;-70
2022/04/14 06:25:34;;;;;;;15.90;5.33;;;;;;;6.45;69.10;99863.69;1767714;80;21005;-69
2022/04/14 06:28:03;;;;;;;17.30;4.60;;;;;;;6.52;68.60;99862.01;1769202;79;21033;-71
2022/04/14 06:30:31;;;;;;;10.48;4.55;;;;;;;6.51;68.30;99870.50;1765622;79;21067;-70
2022/04/14 06:33:02;;;;;;;9.00;3.77;;;;;;;6.52;68.53;99846.95;1758918;80;21100;-70
2022/04/14 06:35:33;;;;;;;15.30;4.00;;;;;;;6.53;68.37;99870.50;1764896;80;21017;-71
2022/04/14 06:37:59;;;;;;;15.75;4.53;;;;;;;6.57;68.39;99866.08;1769158;80;21041;-70
2022/04/14 06:40:27;;;;;;;12.30;4.78;;;;;;;6.64;68.50;99875.88;1709582;82;21072;-70
2022/04/14 06:42:55;;;;;;;12.80;4.70;;;;;;;6.70;67.90;99867.34;1771942;79;21029;-69
2022/04/14 06:45:21;;;;;;;13.78;4.60;;;;;;;6.71;67.66;99865.44;1743572;80;21029;-72
2022/04/14 06:47:49;;;;;;;16.60;6.20;;;;;;;6.71;67.83;99865.44;1697565;83;21556;-70
2022/04/14 06:50:17;;;;;;;13.83;5.17;;;;;;;6.77;67.83;99862.11;1768601;80;21557;-71
2022/04/14 06:52:45;;;;;;;17.65;6.33;;;;;;;6.82;67.42;99870.30;1766551;79;20973;-72
2022/04/14 06:55:23;;;;;;;21.25;6.17;;;;;;;6.87;67.62;99865.31;1769852;80;21016;-70
2022/04/14 06:57:50;;;;;;;13.72;5.50;;;;;;;6.93;67.36;99872.37;1776241;79;21073;-72
2022/04/14 07:00:18;;;;;;;17.02;5.05;;;;;;;6.95;67.22;99870.17;1744369;80;21239;-71
2022/04/14 07:02:52;;;;;;;23.12;7.25;;;;;;;6.96;66.46;99879.22;1770241;80;22212;-72
2022/04/14 07:05:25;;;;;;;17.02;5.70;;;;;;;6.97;66.80;99879.48;1716288;83;21018;-71
2022/04/14 07:07:54;;;;;;;15.65;6.90;;;;;;;7.01;66.83;99870.38;1772312;79;21105;-70
2022/04/14 07:10:21;;;;;;;10.45;4.40;;;;;;;7.07;66.39;99873.91;1763865;79;21025;-71
2022/04/14 07:12:48;;;;;;;18.55;4.35;;;;;;;7.09;66.14;99879.92;1766742;80;21115;-69
2022/04/14 07:15:15;;;;;;;8.13;3.77;;;;;;;7.13;66.43;99878.23;1767534;79;21508;-69
2022/04/14 07:17:42;;;;;;;11.25;4.53;;;;;;;7.20;66.09;99882.58;1745599;79;21045;-72
2022/04/14 07:20:09;;;;;;;13.90;5.25;;;;;;;7.21;65.93;99885.03;1704704;82;21557;-69
2022/04/14 07:22:50;;;;;;;13.60;4.25;;;;;;;7.22;65.36;99892.67;1706315;83;21512;-70
2022/04/14 07:25:17;;;;;;;14.75;5.87;;;;;;;7.18;65.46;99880.13;1772781;79;21378;-69
2022/04/14 07:27:45;;;;;;;17.95;4.72;;;;;;;7.18;65.55;99878.76;1763183;80;20999;-69
2022/04/14 07:30:12;;;;;;;20.77;6.17;;;;;;;7.20;65.41;99873.78;1771029;79;20974;-70
2022/04/14 07:32:43;;;;;;;17.15;6.33;;;;;;;7.23;65.03;99870.48;1769110;79;21008;-70
2022/04/14 07:35:10;;;;;;;25.17;6.58;;;;;;;7.26;65.54;99880.88;1705794;83;21069;-69
2022/04/14 07:37:41;;;;;;;27.32;6.72;;;;;;;7.30;64.90;99875.62;1774048;79;21039;-70
2022/04/14 07:40:10;;;;;;;8.20;3.62;;;;;;;7.34;64.90;99875.30;1767207;79;21002;-70
2022/04/14 07:42:40;;;;;;;8.88;3.15;;;;;;;7.40;64.87;99881.56;1743240;79;21146;-71
2022/04/14 07:45:09;;;;;;;12.07;3.52;;;;;;;7.43;64.93;99872.20;1766986;81;21028;-72
2022/04/14 07:47:41;;;;;;;7.08;2.67;;;;;;;7.44;64.37;99881.23;1759705;81;21496;-69
2022/04/14 07:50:13;;;;;;;9.83;3.15;;;;;;;7.46;64.78;99866.68;1745538;81;21365;-71
2022/04/14 07:52:52;;;;;;;7.28;3.22;;;;;;;7.53;64.60;99876.75;1757476;80;20976;-69
2022/04/14 07:55:27;;;;;;;9.55;3.75;;;;;;;7.59;64.67;99882.98;1760969;79;21016;-70
2022/04/14 07:57:56;;;;;;;6.87;3.40;;;;;;;7.61;63.43;99881.34;1731026;81;21290;-69
2022/04/14 08:00:24;;;;;;;11.18;3.37;;;;;;;7.58;63.48;99879.16;1764857;80;21033;-69
2022/04/14 08:02:59;;;;;;;7.08;3.00;;;;;;;7.61;64.01;99874.49;1764026;80;21158;-70
2022/04/14 08:05:33;;;;;;;13.15;4.62;;;;;;;7.72;64.48;99880.66;1757572;80;21052;-68
2022/04/14 08:08:21;;;;;;;12.58;4.28;;;;;;;7.76;62.93;99881.73;1762523;80;21076;-69
2022/04/14 08:10:37;;;;;;;11.45;4.33;;;;;;;7.78;63.21;99883.05;1756955;79;21481;-69
2022/04/14 08:13:05;;;;;;;14.23;4.17;;;;;;;7.82;62.41;99883.83;1767496;81;21536;-69
2022/04/14 08:15:33;;;;;;;10.03;3.62;;;;;;;7.84;62.74;99881.63;1767778;80;21533;-70
2022/04/14 08:18:02;;;;;;;8.00;3.02;;;;;;;7.90;62.96;99875.78;1757834;80;21551;-69
2022/04/14 08:20:29;;;;;;;8.50;2.92;;;;;;;7.96;62.99;99879.28;1767341;81;21481;-73
2022/04/14 08:23:01;;;;;;;7.03;3.30;;;;;;;7.99;63.22;99875.95;1767996;80;21513;-73
2022/04/14 08:25:35;;;;;;;8.00;3.50;;;;;;;8.06;62.91;99870.65;1768055;81;21029;-72
2022/04/14 08:28:08;;;;;;;8.20;3.42;;;;;;;8.10;62.86;99871.70;1768006;81;20974;-70
2022/04/14 08:30:36;;;;;;;7.70;3.37;;;;;;;8.18;62.73;99872.96;1760292;81;21041;-69
2022/04/14 08:33:06;;;;;;;11.53;3.35;;;;;;;8.21;62.05;99873.19;1767905;81;20993;-71
2022/04/14 08:35:33;;;;;;;7.53;3.33;;;;;;;8.20;62.21;99872.12;1768175;81;20974;-71
2022/04/14 08:38:07;;;;;;;8.38;2.80;;;;;;;8.22;62.07;99876.19;1767918;81;20957;-73
2022/04/14 08:40:39;;;;;;;9.03;3.90;;;;;;;8.23;62.17;99879.21;1769375;80;21165;-72
2022/04/14 08:43:09;;;;;;;7.47;3.17;;;;;;;8.27;62.61;99872.00;1714547;83;21079;-70
2022/04/14 08:45:38;;;;;;;4.70;2.60;;;;;;;8.40;62.45;99878.70;1773964;80;20998;-71
2022/04/14 08:48:06;;;;;;;9.20;3.98;;;;;;;8.48;62.34;99874.45;1772386;80;21030;-68
2022/04/14 08:50:34;;;;;;;7.80;3.30;;;;;;;8.55;61.92;99870.55;1727245;81;21013;-70
2022/04/14 08:53:04;;;;;;;8.85;3.67;;;;;;;8.63;61.88;99870.69;1714232;82;21108;-69
2022/04/14 08:55:31;;;;;;;9.23;3.80;;;;;;;8.78;61.48;99874.33;1703382;82;21865;-72
2022/04/14 08:57:58;;;;;;;4.72;2.33;;;;;;;8.85;60.58;99876.11;1778651;79;21084;-69
2022/04/14 09:00:30;;;;;;;7.37;2.60;;;;;;;8.89;60.01;99875.78;1777748;80;21107;-70
2022/04/14 09:02:58;;;;;;;6.47;2.58;;;;;;;8.91;59.49;99880.98;1767137;79;21045;-70
2022/04/14 09:05:25;;;;;;;8.23;2.37;;;;;;;8.86;59.12;99879.14;1780376;79;21293;-69
2022/04/14 09:07:53;;;;;;;8.13;2.17;;;;;;;8.86;58.35;99879.69;1779315;79;21044;-70
2022/04/14 09:10:20;;;;;;;4.25;2.30;;;;;;;8.76;58.10;99878.75;1776910;80;21005;-69
2022/04/14 09:13:02;;;;;;;5.00;2.45;;;;;;;8.69;58.14;99885.17;1771551;79;21534;-70
2022/04/14 09:15:18;;;;;;;7.62;2.17;;;;;;;8.74;58.84;99881.52;1767604;79;21002;-69
2022/04/14 09:17:48;;;;;;;6.55;2.12;;;;;;;8.82;57.66;99880.84;1714208;83;21019;-68
2022/04/14 09:20:38;;;;;;;8.58;2.87;;;;;;;8.89;56.03;99880.45;1708529;82;21063;-69
2022/04/14 09:23:25;;;;;;;6.42;2.60;;;;;;;8.93;56.72;99876.56;1707099;82;21049;-71
2022/04/14 09:26:06;;;;;;;7.50;2.85;;;;;;;9.05;57.20;99871.41;1690896;84;21113;-70
2022/04/14 09:28:33;;;;;;;7.53;2.45;;;;;;;9.17;55.85;99872.31;1760052;80;21029;-73
2022/04/14 09:31:06;;;;;;;4.87;2.27;;;;;;;9.31;55.33;99864.64;1709528;83;21215;-68
2022/04/14 09:33:34;;;;;;;8.08;2.10;;;;;;;9.46;55.48;99873.17;1774327;79;21123;-70
2022/04/14 09:36:19;;;;;;;6.87;2.90;;;;;;;9.61;54.57;99872.05;1778873;80;20988;-68
2022/04/14 09:39:06;;;;;;;7.25;2.52;;;;;;;9.78;53.07;99876.12;1715988;83;20998;-70
2022/04/14 09:41:45;;;;;;;8.78;2.58;;;;;;;9.88;51.26;99873.17;1760855;79;20998;-71
2022/04/14 09:44:14;;;;;;;4.25;2.00;;;;;;;9.94;51.27;99879.39;1759546;80;21837;-69
2022/04/14 09:46:46;;;;;;;7.78;3.08;;;;;;;10.06;50.23;99885.76;1755989;80;21022;-72
2022/04/14 09:49:17;;;;;;;6.75;2.52;;;;;;;10.16;50.73;99877.84;1756767;80;21560;-72
2022/04/14 09:51:46;;;;;;;10.82;3.02;;;;;;;10.31;50.61;99879.44;1755500;80;21017;-70
2022/04/14 09:54:16;;;;;;;9.43;3.05;;;;;;;10.46;49.97;99867.25;1757481;80;21116;-70
2022/04/14 09:56:52;;;;;;;14.43;3.55;;;;;;;10.62;48.59;99867.75;1762105;80;21758;-70
2022/04/14 09:59:30;;;;;;;7.47;3.27;;;;;;;10.84;48.42;99875.77;1770810;80;21005;-70
2022/04/14 10:02:16;;;;;;;7.20;2.98;;;;;;;11.03;46.46;99866.49;1768516;80;21032;-68
2022/04/14 10:04:47;;;;;;;6.83;3.17;;;;;;;11.20;48.30;99860.27;1765859;80;21501;-70
2022/04/14 10:07:17;;;;;;;8.60;3.37;;;;;;;11.46;48.38;99865.67;1766587;80;20978;-72
2022/04/14 10:09:48;;;;;;;8.90;3.05;;;;;;;11.62;44.47;99857.77;1755409;81;21249;-70
2022/04/14 10:12:27;;;;;;;9.25;2.50;;;;;;;11.81;44.38;99853.38;1757645;81;22336;-73
2022/04/14 10:15:03;;;;;;;8.58;2.60;;;;;;;11.96;42.03;99858.22;1741808;81;21060;-70
2022/04/14 10:17:32;;;;;;;5.72;1.77;;;;;;;12.03;42.62;99860.74;1757695;81;21026;-69
2022/04/14 10:19:59;;;;;;;4.05;1.77;;;;;;;12.19;42.88;99855.35;1758607;80;21519;-68
2022/04/14 10:22:28;;;;;;;2.17;1.25;;;;;;;12.30;42.00;99853.89;1759206;80;21131;-71
2022/04/14 10:24:57;;;;;;;2.30;1.10;;;;;;;12.44;40.55;99857.89;1748031;80;21053;-69
2022/04/14 10:27:25;;;;;;;3.92;0.90;;;;;;;12.59;38.94;99861.32;1757547;80;21538;-71
2022/04/14 10:30:03;;;;;;;0.93;0.55;;;;;;;12.64;36.50;99860.57;1749436;81;21057;-72
2022/04/14 10:32:30;;;;;;;1.45;1.02;;;;;;;12.72;35.27;99860.34;1757709;80;20982;-70
2022/04/14 10:35:00;;;;;;;0.72;0.50;;;;;;;12.85;35.37;99861.30;1753935;81;21159;-70
2022/04/14 10:37:34;;;;;;;1.00;0.60;;;;;;;12.94;32.56;99859.91;1755688;80;21566;-70
2022/04/14 10:40:02;;;;;;;2.00;0.70;;;;;;;12.91;31.69;99860.56;1772465;80;21029;-72
2022/04/14 10:42:31;;;;;;;3.90;0.50;;;;;;;12.83;31.52;99859.41;1774237;80;21005;-70
2022/04/14 10:44:57;;;;;;;1.82;0.75;;;;;;;12.74;31.43;99854.48;1759181;80;21076;-71
2022/04/14 10:47:54;;;;;;;1.32;0.65;;;;;;;12.74;32.18;99866.92;1778512;80;21105;-69
2022/04/14 10:50:31;;;;;;;1.60;0.60;;;;;;;12.77;32.28;99864.32;1782260;79;20989;-70
2022/04/14 10:59:47;;;;;;;3.10;0.80;;;;;;;12.80;32.67;99873.90;1629624;87;21077;-70
2022/04/14 11:02:17;;;;;;;3.92;0.70;;;;;;;12.78;34.23;99864.55;1684387;83;21532;-69
2022/04/14 11:04:52;;;;;;;2.65;0.53;;;;;;;12.84;34.20;99863.83;1759498;80;21036;-69
2022/04/14 11:07:27;;;;;;;2.22;0.65;;;;;;;12.94;33.24;99874.30;1777019;80;21539;-69
2022/04/14 11:10:06;;;;;;;1.10;0.80;;;;;;;12.96;33.80;99870.63;1776677;80;21013;-70
2022/04/14 11:12:47;;;;;;;3.33;0.60;;;;;;;13.00;33.23;99867.44;1773059;79;21220;-68
2022/04/14 11:15:17;;;;;;;1.42;0.42;;;;;;;13.07;33.48;99873.30;1761065;80;21231;-69
2022/04/14 11:17:50;;;;;;;1.75;0.53;;;;;;;13.18;34.09;99868.80;1746311;80;21023;-69
2022/04/14 11:20:34;;;;;;;1.70;0.80;;;;;;;13.24;33.76;99868.29;1771740;80;21019;-70
2022/04/14 11:23:20;;;;;;;6.40;0.90;;;;;;;13.30;33.57;99867.55;1728455;82;21558;-72
2022/04/14 11:25:50;;;;;;;2.50;0.62;;;;;;;13.34;34.36;99851.89;1769936;80;21040;-71
2022/04/14 11:28:27;;;;;;;10.32;0.82;;;;;;;13.57;35.32;99858.61;1775279;80;21238;-69
2022/04/14 11:31:22;;;;;;;1.67;0.70;;;;;;;13.79;33.70;99863.63;1774090;80;21045;-70
2022/04/14 11:33:49;;;;;;;;;;;;;;;13.82;33.43;99858.80;1767681;80;21489;-70
2022/04/14 11:36:19;;;;;;;1.22;0.65;;;;;;;13.94;33.66;99864.20;1776941;80;20495;-70
2022/04/14 11:38:57;;;;;;;3.35;1.87;;;;;;;13.89;31.13;99858.88;1771908;80;21524;-70
2022/04/14 11:41:43;;;;;;;8.20;2.15;;;;;;;13.72;31.76;99860.00;1775311;79;21067;-74
2022/04/14 11:44:31;;;;;;;3.80;1.05;;;;;;;13.66;32.84;99848.88;1777675;79;21119;-72
2022/04/14 11:47:01;;;;;;;1.35;0.70;;;;;;;13.81;32.91;99850.84;1767795;79;21040;-73
2022/04/14 11:49:33;;;;;;;2.77;1.00;;;;;;;14.00;32.53;99853.18;1774449;79;21273;-70
2022/04/14 11:52:05;;;;;;;2.47;1.17;;;;;;;14.12;32.17;99856.02;1787318;79;21473;-71
2022/04/14 11:54:35;;;;;;;5.72;0.85;;;;;;;14.26;32.64;99853.59;1766941;79;21228;-69
2022/04/14 11:57:07;;;;;;;5.35;1.57;;;;;;;14.34;31.88;99852.71;1779057;79;21073;-72
2022/04/14 11:59:44;;;;;;;3.65;1.00;;;;;;;14.32;31.86;99855.00;1783669;79;21066;-70
2022/04/14 12:02:22;;;;;;;1.57;0.90;;;;;;;14.34;31.89;99856.05;1706359;82;21040;-71